createdAt,value
2023-09-06T00:04:31.340Z,3.30
2023-09-06T00:14:34.543Z,4.10
2023-09-06T00:24:38.956Z,3.80
2023-09-06T00:34:41.955Z,4.15
2023-09-06T00:44:46.499Z,4.47
2023-09-06T00:54:50.528Z,4.40
2023-09-06T01:04:56.049Z,4.35
2023-09-06T01:14:59.097Z,4.85
2023-09-06T01:25:04.526Z,4.38
2023-09-06T01:35:11.369Z,4.28
2023-09-06T01:45:18.722Z,4.20
2023-09-06T01:55:22.719Z,4.50
2023-09-06T02:05:27.243Z,4.30
2023-09-06T02:15:30.871Z,4.63
2023-09-06T02:25:36.016Z,4.50
2023-09-06T02:35:41.652Z,4.70
2023-09-06T02:45:51.346Z,5.00
2023-09-06T02:55:55.417Z,4.90
2023-09-06T03:06:05.307Z,4.68
2023-09-06T03:16:09.035Z,5.40
2023-09-06T03:26:14.502Z,4.30
2023-09-06T03:36:18.116Z,5.00
2023-09-06T03:46:24.051Z,5.38
2023-09-06T03:56:27.149Z,4.90
2023-09-06T04:06:32.357Z,5.23
2023-09-06T04:16:36.588Z,5.40
2023-09-06T04:26:42.347Z,5.80
2023-09-06T04:36:45.819Z,5.80
2023-09-06T04:46:50.377Z,6.00
2023-09-06T04:56:54.442Z,7.10
2023-09-06T05:07:01.370Z,7.40
2023-09-06T05:17:04.517Z,8.20
2023-09-06T05:27:08.920Z,9.05
2023-09-06T05:37:12.856Z,9.35
2023-09-06T05:47:17.419Z,9.27
2023-09-06T05:57:20.599Z,9.90
2023-09-06T06:07:25.579Z,10.17
2023-09-06T06:17:29.858Z,9.05
2023-09-06T06:27:40.529Z,8.80
2023-09-06T06:37:50.583Z,8.30
2023-09-06T06:47:55.511Z,8.35
2023-09-06T06:58:04.634Z,8.13
2023-09-06T07:08:09.885Z,9.05
2023-09-06T07:18:17.738Z,7.88
2023-09-06T07:28:38.711Z,7.63
2023-09-06T07:38:42.449Z,6.40
2023-09-06T07:48:47.322Z,6.15
2023-09-06T07:58:53.167Z,5.82
2023-09-06T08:09:00.771Z,5.78
2023-09-06T08:19:06.167Z,5.10
2023-09-06T08:29:16.440Z,3.92
2023-09-06T08:39:23.375Z,3.20
2023-09-06T08:49:30.634Z,3.50
2023-09-06T08:59:42.723Z,3.28
2023-09-06T09:10:01.759Z,2.83
2023-09-06T09:20:06.916Z,2.92
2023-09-06T09:30:13.093Z,2.97
2023-09-06T09:40:20.266Z,3.60
2023-09-06T09:50:26.522Z,3.33
2023-09-06T10:00:31.872Z,3.03
2023-09-06T10:10:40.803Z,3.17
2023-09-06T10:20:51.142Z,3.65
2023-09-06T10:31:09.189Z,3.03
2023-09-06T10:41:12.549Z,3.55
2023-09-06T10:51:19.270Z,3.33
2023-09-06T11:01:22.460Z,4.05
2023-09-06T11:11:33.589Z,3.58
2023-09-06T11:21:37.698Z,2.90
2023-09-06T11:31:50.709Z,4.50
2023-09-06T11:41:55.626Z,4.03
2023-09-06T11:52:06.325Z,3.47
2023-09-06T12:02:14.525Z,2.85
2023-09-06T12:12:21.755Z,3.28
2023-09-06T12:22:27.411Z,3.40
2023-09-06T12:32:36.105Z,2.88
2023-09-06T12:42:46.125Z,2.95
2023-09-06T12:52:54.706Z,3.47
2023-09-06T13:03:01.947Z,3.40
2023-09-06T13:13:09.837Z,3.22
2023-09-06T13:23:16.618Z,3.33
2023-09-06T13:33:23.829Z,3.05
2023-09-06T13:43:33.706Z,3.08
2023-09-06T13:53:44.694Z,2.90
2023-09-06T14:03:48.349Z,3.88
2023-09-06T14:14:01.953Z,3.75
2023-09-06T14:24:08.303Z,3.40
2023-09-06T14:34:16.826Z,2.88
2023-09-06T14:44:21.464Z,2.92
2023-09-06T14:54:33.123Z,2.40
2023-09-06T15:04:38.528Z,2.97
2023-09-06T15:14:49.229Z,3.10
2023-09-06T15:24:54.423Z,2.58
2023-09-06T15:35:09.381Z,2.85
2023-09-06T15:45:13.222Z,2.92
2023-09-06T15:55:18.829Z,3.08
2023-09-06T16:05:29.088Z,3.53
2023-09-06T16:15:40.054Z,3.60
2023-09-06T16:25:43.821Z,3.72
2023-09-06T16:35:51.721Z,4.03
2023-09-06T16:46:01.981Z,4.32
2023-09-06T16:56:09.497Z,3.60
2023-09-06T17:06:18.624Z,4.25
2023-09-06T17:16:26.650Z,4.10
2023-09-06T17:26:36.848Z,4.75
2023-09-06T17:36:43.969Z,4.88
2023-09-06T17:46:51.033Z,4.70
2023-09-06T17:57:00.716Z,5.20
2023-09-06T18:07:07.432Z,4.70
2023-09-06T18:17:15.446Z,6.82
2023-09-06T18:27:18.790Z,5.38
2023-09-06T18:37:23.280Z,6.60
2023-09-06T18:47:26.375Z,6.55
2023-09-06T18:57:30.843Z,7.85
2023-09-06T19:07:35.101Z,8.13
2023-09-06T19:17:40.184Z,9.07
2023-09-06T19:27:44.226Z,9.80
2023-09-06T19:37:48.671Z,9.10
2023-09-06T19:47:51.812Z,8.98
2023-09-06T19:57:56.291Z,9.82
2023-09-06T20:08:00.037Z,9.75
2023-09-06T20:18:05.506Z,10.60
2023-09-06T20:28:08.635Z,10.38
2023-09-06T20:38:13.063Z,10.67
2023-09-06T20:48:16.575Z,10.95
2023-09-06T20:58:21.792Z,12.50
2023-09-06T21:08:25.026Z,12.98
2023-09-06T21:18:30.516Z,12.63
2023-09-06T21:28:34.145Z,12.05
2023-09-06T21:38:38.855Z,11.87
2023-09-06T21:48:41.981Z,11.57
2023-09-06T21:58:47.836Z,11.73
2023-09-06T22:08:53.749Z,11.20
2023-09-06T22:19:17.314Z,10.65
2023-09-06T22:29:20.372Z,11.68
2023-09-06T22:39:25.010Z,12.03
2023-09-06T22:49:28.111Z,13.02
2023-09-06T22:59:32.567Z,12.87
2023-09-06T23:09:35.647Z,14.13
2023-09-06T23:19:45.104Z,14.73
2023-09-06T23:29:52.095Z,14.40
2023-09-06T23:39:59.891Z,13.90
2023-09-06T23:50:03.312Z,15.02
